Time;durP1;ratioP1;P1;durP2;ratioP2;P2;SDS_P1;SDS_P2;PMS_P1;PMS_P2;Temp;Humidity;BMP_temperature;BMP_pressure;BME280_temperature;BME280_humidity;BME280_pressure;Samples;Min_cycle;Max_cycle;Signal;HPM_P1;HPM_P2
2022/01/09 00:00:29;;;;;;;117.18;47.67;;;-4.50;99.90;;;;;;5013814;28;20025;-77
2022/01/09 00:02:56;;;;;;;98.55;46.65;;;-4.50;99.90;;;;;;5013850;28;20061;-77
2022/01/09 00:05:22;;;;;;;106.53;44.22;;;-4.60;99.90;;;;;;5013776;28;20032;-77
2022/01/09 00:07:48;;;;;;;112.93;44.42;;;-4.60;99.90;;;;;;5031474;28;20491;-77
2022/01/09 00:10:14;;;;;;;115.65;47.60;;;-4.60;99.90;;;;;;5031389;28;20026;-76
2022/01/09 00:12:40;;;;;;;158.77;64.85;;;-4.60;99.90;;;;;;5013732;28;20139;-77
2022/01/09 00:15:07;;;;;;;197.55;78.90;;;-4.60;99.90;;;;;;5013693;28;20108;-77
2022/01/09 00:17:32;;;;;;;157.88;63.03;;;-4.60;99.90;;;;;;5031342;28;20025;-77
2022/01/09 00:19:58;;;;;;;200.20;74.38;;;-4.60;99.90;;;;;;5029510;28;20041;-77
2022/01/09 00:22:47;;;;;;;188.43;69.60;;;-4.60;99.90;;;;;;5029976;28;20471;-77
2022/01/09 00:25:10;;;;;;;164.38;60.10;;;-4.50;99.90;;;;;;5030663;28;20232;-77
2022/01/09 00:27:36;;;;;;;272.88;96.05;;;-4.50;99.90;;;;;;5031279;28;20053;-78
2022/01/09 00:30:07;;;;;;;156.75;62.80;;;-4.50;99.90;;;;;;5029798;28;20082;-77
2022/01/09 00:32:33;;;;;;;138.02;56.25;;;-4.50;99.90;;;;;;5032540;28;20040;-77
2022/01/09 00:34:59;;;;;;;121.60;49.13;;;-4.50;99.90;;;;;;5036451;28;20026;-76
2022/01/09 00:37:25;;;;;;;142.57;57.95;;;-4.50;99.90;;;;;;5036479;28;20025;-76
2022/01/09 00:39:52;;;;;;;125.10;49.53;;;-4.50;99.90;;;;;;5037689;28;20029;-76
2022/01/09 00:42:18;;;;;;;158.93;56.35;;;-4.50;99.90;;;;;;5037858;28;20472;-76
2022/01/09 00:44:43;;;;;;;152.88;60.40;;;-4.40;99.90;;;;;;5038759;28;20033;-77
2022/01/09 00:47:09;;;;;;;141.82;56.58;;;-4.40;99.90;;;;;;5026904;28;20070;-76
2022/01/09 00:49:35;;;;;;;159.38;57.78;;;-4.40;99.90;;;;;;5057575;28;20032;-77
2022/01/09 00:52:00;;;;;;;133.90;53.08;;;-4.40;99.90;;;;;;5039633;28;20029;-77
2022/01/09 00:54:26;;;;;;;93.63;39.53;;;-4.30;99.90;;;;;;5057505;28;20494;-77
2022/01/09 00:56:51;;;;;;;80.25;35.92;;;-4.30;99.90;;;;;;5046253;28;20021;-77
2022/01/09 00:59:17;;;;;;;70.50;32.95;;;-4.30;99.90;;;;;;5037550;28;20022;-76
2022/01/09 01:01:42;;;;;;;81.85;31.48;;;-4.30;99.90;;;;;;5019741;28;20060;-77
2022/01/09 01:04:08;;;;;;;68.72;32.80;;;-4.20;99.90;;;;;;5019645;28;20060;-77
2022/01/09 01:06:34;;;;;;;90.07;37.65;;;-4.20;99.90;;;;;;5037540;28;20021;-77
2022/01/09 01:08:59;;;;;;;90.60;36.67;;;-4.10;99.90;;;;;;5020020;28;20028;-78
2022/01/09 01:11:25;;;;;;;72.57;32.55;;;-4.10;99.90;;;;;;5037405;28;20037;-77
2022/01/09 01:13:50;;;;;;;72.40;32.85;;;-4.10;99.90;;;;;;5019659;28;20017;-78
2022/01/09 01:16:16;;;;;;;101.22;41.13;;;-4.00;99.90;;;;;;5037400;28;20025;-77
2022/01/09 01:18:44;;;;;;;123.43;52.08;;;-4.00;99.90;;;;;;5037371;28;20364;-77
2022/01/09 01:21:10;;;;;;;121.22;51.78;;;-3.90;99.90;;;;;;5025067;28;20470;-77
2022/01/09 01:23:36;;;;;;;133.70;57.05;;;-4.00;99.90;;;;;;5039341;28;20478;-77
2022/01/09 01:26:02;;;;;;;135.93;55.83;;;-4.00;99.90;;;;;;5057305;28;20032;-77
2022/01/09 01:28:29;;;;;;;134.52;55.58;;;-3.90;99.90;;;;;;5039282;28;20474;-77
2022/01/09 01:30:55;;;;;;;127.72;52.10;;;-3.90;99.90;;;;;;5057153;28;20064;-77
2022/01/09 01:33:21;;;;;;;105.97;47.47;;;-3.90;99.90;;;;;;5057305;28;20033;-77
2022/01/09 01:35:46;;;;;;;110.40;50.58;;;-3.90;99.90;;;;;;5039141;28;20293;-78
2022/01/09 01:38:12;;;;;;;102.82;46.90;;;-3.90;99.90;;;;;;5057188;28;20027;-78
2022/01/09 01:40:37;;;;;;;84.25;39.42;;;-3.80;99.90;;;;;;5057008;28;20044;-78
2022/01/09 01:43:03;;;;;;;79.60;37.13;;;-3.80;99.90;;;;;;5057199;28;20024;-77
2022/01/09 01:45:29;;;;;;;75.82;35.22;;;-3.80;99.90;;;;;;5035819;28;20040;-77
2022/01/09 01:47:54;;;;;;;76.53;33.47;;;-3.80;99.90;;;;;;5053941;28;20017;-78
2022/01/09 01:50:20;;;;;;;75.22;35.63;;;-3.70;99.90;;;;;;5035976;28;20040;-77
2022/01/09 01:52:50;;;;;;;93.25;40.30;;;-3.70;99.90;;;;;;5053861;28;20109;-77
2022/01/09 01:55:16;;;;;;;86.47;41.60;;;-3.60;99.90;;;;;;5053765;28;20020;-77
2022/01/09 01:57:43;;;;;;;94.43;41.63;;;-3.50;99.90;;;;;;5035819;28;20017;-78
2022/01/09 02:00:12;;;;;;;88.10;42.92;;;-3.50;99.90;;;;;;5035737;28;20124;-77
2022/01/09 02:02:38;;;;;;;82.13;38.75;;;-3.50;99.90;;;;;;5035799;28;20021;-77
2022/01/09 02:05:05;;;;;;;78.07;38.20;;;-3.50;99.90;;;;;;5053680;28;20450;-77
2022/01/09 02:07:32;;;;;;;86.18;38.63;;;-3.40;99.90;;;;;;5035719;28;20520;-77
2022/01/09 02:09:58;;;;;;;116.60;50.80;;;-3.50;99.90;;;;;;5053431;28;20482;-77
2022/01/09 02:12:23;;;;;;;179.52;81.38;;;-3.50;99.90;;;;;;5035487;28;20052;-78
2022/01/09 02:14:49;;;;;;;164.55;69.35;;;-3.50;99.90;;;;;;5052537;28;20072;-77
2022/01/09 02:17:20;;;;;;;116.40;53.38;;;-3.40;99.90;;;;;;5033820;28;20028;-78
2022/01/09 02:19:56;;;;;;;111.53;53.53;;;-3.40;99.90;;;;;;5051375;28;20390;-77
2022/01/09 02:22:24;;;;;;;114.90;53.25;;;-3.40;99.90;;;;;;5051558;28;20024;-77
2022/01/09 02:24:50;;;;;;;117.00;51.80;;;-3.40;99.90;;;;;;5033462;28;20014;-77
2022/01/09 02:27:16;;;;;;;112.43;50.03;;;-3.40;99.90;;;;;;5034051;28;20545;-77
2022/01/09 02:29:45;;;;;;;96.78;44.38;;;-3.30;99.90;;;;;;5052393;28;20050;-77
2022/01/09 02:32:11;;;;;;;104.80;46.67;;;-3.30;99.90;;;;;;5052805;28;20041;-77
2022/01/09 02:34:37;;;;;;;128.13;56.63;;;-3.30;99.90;;;;;;5053345;28;20048;-77
2022/01/09 02:37:02;;;;;;;148.95;66.95;;;-3.20;99.90;;;;;;5035270;28;20021;-77
2022/01/09 02:39:28;;;;;;;127.88;59.10;;;-3.20;99.90;;;;;;5034873;28;20029;-77
2022/01/09 02:41:53;;;;;;;108.50;44.95;;;-3.20;99.90;;;;;;5052898;28;20032;-77
2022/01/09 02:44:19;;;;;;;82.78;39.35;;;-3.20;99.90;;;;;;5068103;28;20116;-77
2022/01/09 02:47:05;;;;;;;66.13;31.35;;;-3.10;99.90;;;;;;5034849;28;20482;-77
2022/01/09 02:49:32;;;;;;;56.72;26.13;;;-3.10;99.90;;;;;;5052821;28;20013;-77
2022/01/09 02:51:58;;;;;;;54.53;25.60;;;-3.10;99.90;;;;;;5052669;28;20033;-77
2022/01/09 02:57:08;;;;;;;97.18;42.80;;;-3.00;99.90;;;;;;5051606;28;20090;-77
2022/01/09 02:59:33;;;;;;;57.83;27.70;;;-3.00;99.90;;;;;;5052547;28;20025;-77
2022/01/09 03:01:59;;;;;;;71.40;35.08;;;-3.00;99.90;;;;;;5052751;28;20276;-77
2022/01/09 03:04:24;;;;;;;94.82;44.72;;;-3.00;99.90;;;;;;5034583;28;20032;-77
2022/01/09 03:06:50;;;;;;;101.82;47.63;;;-3.00;99.90;;;;;;5052535;28;20025;-77
2022/01/09 03:09:16;;;;;;;108.95;46.75;;;-3.10;99.90;;;;;;5034195;28;20025;-77
2022/01/09 03:11:42;;;;;;;111.80;51.58;;;-3.20;99.90;;;;;;5050455;28;20464;-77
2022/01/09 03:14:07;;;;;;;115.72;53.08;;;-3.20;99.90;;;;;;5050569;28;20021;-76
2022/01/09 03:16:34;;;;;;;115.72;49.75;;;-3.30;99.90;;;;;;5050403;28;20104;-77
2022/01/09 03:18:59;;;;;;;117.03;47.85;;;-3.30;99.90;;;;;;5050254;28;20371;-77
2022/01/09 03:21:25;;;;;;;117.97;48.70;;;-3.30;99.90;;;;;;5032571;28;20411;-77
2022/01/09 03:23:50;;;;;;;107.47;47.55;;;-3.40;99.90;;;;;;5050537;28;20021;-77
2022/01/09 03:26:16;;;;;;;90.22;41.72;;;-3.50;99.90;;;;;;5050359;28;20431;-77
2022/01/09 03:28:41;;;;;;;81.72;37.25;;;-3.50;99.90;;;;;;5052027;28;20067;-77
2022/01/09 03:31:07;;;;;;;65.35;30.45;;;-3.60;99.90;;;;;;5051921;28;20065;-77
2022/01/09 03:33:33;;;;;;;57.53;28.05;;;-3.60;99.90;;;;;;5051951;28;20028;-78
2022/01/09 03:35:58;;;;;;;61.78;29.10;;;-3.70;99.90;;;;;;5051840;28;20032;-77
2022/01/09 03:38:24;;;;;;;54.13;26.42;;;-3.70;99.90;;;;;;5033848;28;20024;-77
2022/01/09 03:40:49;;;;;;;52.28;23.85;;;-3.80;99.90;;;;;;5033559;28;20037;-77
2022/01/09 03:43:15;;;;;;;54.00;25.73;;;-3.90;99.90;;;;;;5047279;28;20030;-77
2022/01/09 03:45:40;;;;;;;59.10;27.30;;;-3.90;99.90;;;;;;5032032;28;20476;-77
2022/01/09 03:48:06;;;;;;;54.97;24.52;;;-3.90;99.90;;;;;;5031612;28;20021;-77
2022/01/09 03:50:33;;;;;;;59.60;25.13;;;-4.00;99.90;;;;;;5031568;28;20103;-77
2022/01/09 03:52:58;;;;;;;56.15;25.10;;;-4.00;99.90;;;;;;5047146;28;20021;-78
2022/01/09 03:55:25;;;;;;;46.13;24.45;;;-4.00;99.90;;;;;;5047046;28;20032;-77
2022/01/09 03:57:50;;;;;;;59.97;24.98;;;-4.00;99.90;;;;;;5047275;28;20364;-77
2022/01/09 04:00:19;;;;;;;50.00;24.13;;;-4.10;99.90;;;;;;5030405;28;20025;-77
2022/01/09 04:02:45;;;;;;;50.13;23.25;;;-4.10;99.90;;;;;;5011890;28;20467;-77
2022/01/09 04:05:11;;;;;;;54.38;24.60;;;-4.10;99.90;;;;;;5029684;28;20024;-77
2022/01/09 04:07:38;;;;;;;55.17;23.45;;;-4.30;99.90;;;;;;5044580;28;20018;-77
2022/01/09 04:10:04;;;;;;;54.22;24.90;;;-4.20;99.90;;;;;;5044850;28;20117;-77
2022/01/09 04:12:47;;;;;;;58.72;25.85;;;-4.30;99.90;;;;;;5011739;28;20514;-76
2022/01/09 04:15:13;;;;;;;;;;;-4.30;99.90;;;;;;5031110;28;20035;-77
2022/01/09 04:20:14;;;;;;;53.75;25.95;;;-4.40;99.90;;;;;;5031606;28;20083;-77
2022/01/09 04:22:40;;;;;;;46.13;22.75;;;-4.40;99.90;;;;;;5031135;28;20060;-76
2022/01/09 04:25:06;;;;;;;56.85;24.90;;;-4.50;99.90;;;;;;5045776;28;20025;-76
2022/01/09 04:27:33;;;;;;;51.58;25.33;;;-4.70;99.90;;;;;;5030806;28;20048;-77
2022/01/09 04:29:59;;;;;;;49.72;25.98;;;-4.80;99.90;;;;;;5031195;28;20052;-77
2022/01/09 04:32:24;;;;;;;52.25;25.63;;;-4.90;99.90;;;;;;5031140;28;20037;-77
2022/01/09 04:34:50;;;;;;;57.63;24.48;;;-4.90;99.90;;;;;;5046497;28;20478;-77
2022/01/09 04:37:16;;;;;;;50.47;23.90;;;-5.00;99.90;;;;;;5046398;28;20412;-77
2022/01/09 04:39:42;;;;;;;56.80;26.50;;;-5.00;99.90;;;;;;5046305;28;20071;-77
2022/01/09 04:42:09;;;;;;;45.78;24.20;;;-5.10;99.90;;;;;;5013446;28;20025;-77
2022/01/09 04:44:34;;;;;;;55.10;26.27;;;-5.10;99.90;;;;;;5013258;28;20033;-77
2022/01/09 04:47:06;;;;;;;58.72;25.77;;;-5.20;99.90;;;;;;5046447;28;20018;-77
2022/01/09 04:49:37;;;;;;;55.92;25.48;;;-5.30;99.90;;;;;;5030628;28;20022;-77
2022/01/09 04:52:05;;;;;;;58.25;26.33;;;-5.30;99.90;;;;;;5029515;28;20124;-76
2022/01/09 04:54:31;;;;;;;65.05;28.25;;;-5.30;99.90;;;;;;5029092;28;20018;-77
2022/01/09 04:56:56;;;;;;;79.20;38.70;;;-5.40;99.90;;;;;;5029313;28;20021;-77
2022/01/09 04:59:22;;;;;;;74.43;32.40;;;-5.60;99.90;;;;;;5030838;28;20026;-77
2022/01/09 05:01:47;;;;;;;79.25;31.58;;;-5.60;99.90;;;;;;5030921;28;20501;-77
2022/01/09 05:04:13;;;;;;;91.82;44.70;;;-5.70;99.90;;;;;;5030359;28;20387;-77
2022/01/09 05:06:38;;;;;;;134.13;58.30;;;-5.70;99.90;;;;;;5045334;28;20043;-78
2022/01/09 05:09:04;;;;;;;105.85;43.13;;;-5.70;99.90;;;;;;5030895;28;20022;-78
2022/01/09 05:11:30;;;;;;;90.65;41.08;;;-5.70;99.90;;;;;;5030627;28;20037;-77
2022/01/09 05:13:55;;;;;;;77.70;36.42;;;-5.80;99.90;;;;;;5046126;28;20032;-77
2022/01/09 05:16:21;;;;;;;90.28;39.47;;;-5.80;99.90;;;;;;5030751;28;20052;-76
2022/01/09 05:18:55;;;;;;;134.25;56.75;;;-5.80;99.90;;;;;;5045987;28;20446;-77
2022/01/09 05:21:21;;;;;;;136.80;58.58;;;-5.80;99.90;;;;;;5033123;28;20022;-77
2022/01/09 05:23:46;;;;;;;113.73;48.27;;;-5.80;99.90;;;;;;5034526;28;20105;-77
2022/01/09 05:26:12;;;;;;;82.10;35.25;;;-5.90;99.90;;;;;;5034496;28;20064;-77
2022/01/09 05:28:38;;;;;;;81.25;39.05;;;-6.00;99.90;;;;;;5034389;28;20032;-77
2022/01/09 05:31:03;;;;;;;84.50;39.17;;;-6.00;99.90;;;;;;5049617;28;20037;-77
2022/01/09 05:33:29;;;;;;;99.18;45.85;;;-6.00;99.90;;;;;;5034193;28;20426;-77
2022/01/09 05:35:55;;;;;;;120.40;51.33;;;-6.00;99.90;;;;;;5034224;28;20104;-77
2022/01/09 05:38:20;;;;;;;115.95;50.17;;;-6.00;99.90;;;;;;5049595;28;20068;-77
2022/01/09 05:40:46;;;;;;;86.35;41.17;;;-6.00;99.90;;;;;;5049455;28;20045;-77
2022/01/09 05:43:13;;;;;;;83.07;37.70;;;-6.00;99.90;;;;;;5033906;28;20100;-77
2022/01/09 05:45:39;;;;;;;73.72;36.30;;;-6.00;99.90;;;;;;5016261;28;20025;-77
2022/01/09 05:48:06;;;;;;;61.57;30.47;;;-6.00;99.90;;;;;;5049487;28;20372;-77
2022/01/09 05:50:32;;;;;;;64.50;30.77;;;-6.00;99.90;;;;;;5016152;28;20017;-77
2022/01/09 05:52:57;;;;;;;55.83;27.90;;;-6.00;99.90;;;;;;5016241;28;20021;-76
2022/01/09 05:55:23;;;;;;;57.03;25.90;;;-6.00;99.90;;;;;;5048076;28;20029;-77
2022/01/09 05:57:48;;;;;;;54.27;27.07;;;-5.90;99.90;;;;;;5031943;28;20018;-77
2022/01/09 06:00:15;;;;;;;57.28;28.17;;;-5.90;99.90;;;;;;5031848;28;20018;-77
2022/01/09 06:02:41;;;;;;;61.67;29.00;;;-5.90;99.90;;;;;;5047443;28;20030;-77
2022/01/09 06:05:07;;;;;;;56.22;27.92;;;-5.80;99.90;;;;;;5031801;28;20520;-76
2022/01/09 06:07:33;;;;;;;61.35;27.67;;;-5.80;99.90;;;;;;5046969;28;20487;-76
2022/01/09 06:09:58;;;;;;;58.13;26.00;;;-5.70;99.90;;;;;;5032678;28;20024;-77
2022/01/09 06:12:24;;;;;;;55.00;26.20;;;-5.70;99.90;;;;;;5033555;28;20533;-77
2022/01/09 06:14:51;;;;;;;56.05;27.02;;;-5.70;99.90;;;;;;5048885;28;20029;-77
2022/01/09 06:17:17;;;;;;;56.47;25.75;;;-5.60;99.90;;;;;;5033621;28;20472;-76
2022/01/09 06:19:43;;;;;;;60.20;26.02;;;-5.60;99.90;;;;;;5033081;28;20087;-77
2022/01/09 06:22:08;;;;;;;59.70;26.63;;;-5.50;99.90;;;;;;5032183;28;20014;-77
2022/01/09 06:24:34;;;;;;;47.80;24.47;;;-5.50;99.90;;;;;;5032072;28;20041;-77
2022/01/09 06:26:59;;;;;;;56.13;27.30;;;-5.40;99.90;;;;;;5032138;28;20514;-77
2022/01/09 06:29:25;;;;;;;56.58;26.88;;;-5.30;99.90;;;;;;5031900;28;20045;-77
2022/01/09 06:31:51;;;;;;;71.30;30.92;;;-5.20;99.90;;;;;;5032712;28;20030;-77
2022/01/09 06:34:17;;;;;;;72.23;33.13;;;-5.20;99.90;;;;;;5032586;28;20026;-76
2022/01/09 06:36:42;;;;;;;62.97;32.53;;;-5.00;99.90;;;;;;5022370;28;20028;-77
2022/01/09 06:39:08;;;;;;;63.78;31.95;;;-5.00;99.90;;;;;;5040336;28;20096;-77
2022/01/09 06:41:34;;;;;;;69.60;33.22;;;-4.90;99.90;;;;;;5040751;28;20037;-77
2022/01/09 06:43:59;;;;;;;70.45;31.30;;;-4.80;99.90;;;;;;5040580;28;20037;-77
2022/01/09 06:46:26;;;;;;;68.40;31.20;;;-4.80;99.90;;;;;;5039772;28;20033;-77
2022/01/09 06:48:52;;;;;;;73.30;32.90;;;-4.80;99.90;;;;;;5021331;28;20021;-77
2022/01/09 06:51:18;;;;;;;59.25;27.58;;;-4.90;99.90;;;;;;5020977;28;20098;-77
2022/01/09 06:53:43;;;;;;;76.63;33.10;;;-4.90;99.90;;;;;;5038119;28;20483;-77
2022/01/09 06:56:09;;;;;;;77.32;33.42;;;-5.00;99.90;;;;;;5024185;28;20032;-77
2022/01/09 06:58:37;;;;;;;68.78;33.42;;;-4.90;99.90;;;;;;5026033;28;20536;-76
2022/01/09 07:01:04;;;;;;;69.22;30.77;;;-4.90;99.90;;;;;;5021466;28;20360;-77
2022/01/09 07:03:30;;;;;;;100.57;42.40;;;-4.80;99.90;;;;;;5041914;28;20025;-77
2022/01/09 07:05:56;;;;;;;92.97;43.50;;;-4.80;99.90;;;;;;5039434;28;20025;-77
2022/01/09 07:08:21;;;;;;;68.72;33.67;;;-4.80;99.90;;;;;;5025559;28;20040;-77
2022/01/09 07:10:47;;;;;;;72.90;32.88;;;-4.70;99.90;;;;;;5026338;28;20055;-77
2022/01/09 07:13:13;;;;;;;73.40;36.42;;;-4.60;99.90;;;;;;5040149;28;20024;-77
2022/01/09 07:15:38;;;;;;;69.63;34.08;;;-4.50;99.90;;;;;;5042974;28;20083;-77
2022/01/09 07:18:04;;;;;;;73.32;35.55;;;-4.50;99.90;;;;;;5020910;28;20022;-77
2022/01/09 07:20:29;;;;;;;77.30;38.30;;;-4.40;99.90;;;;;;5040790;28;20036;-77
2022/01/09 07:22:55;;;;;;;81.75;35.28;;;-4.30;99.90;;;;;;5024017;28;20028;-76
2022/01/09 07:25:21;;;;;;;69.32;32.67;;;-4.30;99.90;;;;;;5041444;28;20025;-76
2022/01/09 07:27:47;;;;;;;74.10;36.55;;;-4.20;99.90;;;;;;5038655;28;20463;-77
2022/01/09 07:30:12;;;;;;;69.80;33.75;;;-4.20;99.90;;;;;;5019558;28;20017;-77
2022/01/09 07:32:40;;;;;;;73.85;37.33;;;-4.10;99.90;;;;;;5048020;28;20119;-77
2022/01/09 07:35:06;;;;;;;62.25;31.33;;;-4.00;99.90;;;;;;5017869;28;20021;-77
2022/01/09 07:37:32;;;;;;;69.95;31.50;;;-4.00;99.90;;;;;;5035719;28;20033;-77
2022/01/09 07:40:02;;;;;;;58.83;29.88;;;-4.00;99.90;;;;;;5016223;28;20018;-77
2022/01/09 07:42:28;;;;;;;61.60;31.67;;;-3.90;99.90;;;;;;5038813;28;20195;-76
2022/01/09 07:44:54;;;;;;;60.63;31.10;;;-3.90;99.90;;;;;;5018581;28;20390;-77
2022/01/09 07:47:19;;;;;;;56.85;27.50;;;-3.80;99.90;;;;;;5031941;28;20040;-77
2022/01/09 07:49:45;;;;;;;54.33;25.63;;;-3.80;99.90;;;;;;5023775;28;20021;-77
2022/01/09 07:52:10;;;;;;;49.85;28.25;;;-3.70;99.90;;;;;;5020616;28;20025;-77
2022/01/09 07:54:36;;;;;;;48.97;25.92;;;-3.70;99.90;;;;;;5042422;28;20028;-77
2022/01/09 07:57:02;;;;;;;54.97;27.15;;;-3.60;99.90;;;;;;5039952;28;20025;-77
2022/01/09 07:59:28;;;;;;;56.72;26.85;;;-3.60;99.90;;;;;;5019105;28;20028;-77
2022/01/09 08:01:53;;;;;;;61.47;27.60;;;-3.50;99.90;;;;;;5030326;28;20036;-77
2022/01/09 08:04:19;;;;;;;67.60;32.92;;;-3.60;99.90;;;;;;5033409;28;20021;-77
2022/01/09 08:06:44;;;;;;;71.35;35.03;;;-3.50;99.90;;;;;;5032035;28;20025;-77
2022/01/09 08:09:10;;;;;;;78.72;35.55;;;-3.40;99.90;;;;;;5031591;28;20048;-78
2022/01/09 08:11:35;;;;;;;65.30;31.17;;;-3.40;99.90;;;;;;5030771;28;20034;-77
2022/01/09 08:14:01;;;;;;;69.10;33.13;;;-3.30;99.90;;;;;;5045799;28;20021;-76
2022/01/09 08:16:27;;;;;;;73.38;31.65;;;-3.30;99.90;;;;;;5012391;28;20143;-77
2022/01/09 08:18:53;;;;;;;66.53;30.80;;;-3.20;99.90;;;;;;5046039;28;20010;-77
2022/01/09 08:21:20;;;;;;;62.47;29.38;;;-3.10;99.90;;;;;;5009519;28;20038;-77
2022/01/09 08:23:50;;;;;;;55.10;26.25;;;-3.00;99.90;;;;;;5029096;28;20104;-77
2022/01/09 08:26:17;;;;;;;61.92;28.98;;;-2.90;99.90;;;;;;5029303;28;20018;-77
2022/01/09 08:28:47;;;;;;;53.97;25.20;;;-2.80;99.90;;;;;;5027071;28;20395;-77
2022/01/09 08:31:13;;;;;;;50.13;24.77;;;-2.70;99.90;;;;;;5029407;28;20029;-77
2022/01/09 08:33:39;;;;;;;49.55;25.67;;;-2.60;99.90;;;;;;5030722;28;20029;-77
2022/01/09 08:36:05;;;;;;;52.33;27.58;;;-2.50;99.90;;;;;;5029586;28;20036;-78
2022/01/09 08:38:31;;;;;;;61.60;30.70;;;-2.40;99.90;;;;;;5029238;28;20026;-76
2022/01/09 08:40:56;;;;;;;62.47;31.55;;;-2.30;99.90;;;;;;5029077;28;20113;-77
2022/01/09 08:43:23;;;;;;;76.60;35.70;;;-2.20;99.90;;;;;;5030145;28;20041;-76
2022/01/09 08:45:49;;;;;;;67.32;33.83;;;-2.10;99.90;;;;;;5032476;28;20025;-77
2022/01/09 08:48:15;;;;;;;58.40;27.90;;;-2.00;99.90;;;;;;5032268;28;20040;-78
2022/01/09 08:50:41;;;;;;;59.92;28.55;;;-2.00;99.90;;;;;;5044780;28;20082;-77
2022/01/09 08:53:06;;;;;;;60.53;29.63;;;-1.90;99.90;;;;;;5012355;28;20041;-77
2022/01/09 08:55:32;;;;;;;62.97;29.70;;;-1.80;99.90;;;;;;5021448;28;20041;-77
2022/01/09 08:57:57;;;;;;;59.00;27.48;;;-1.80;99.90;;;;;;5031666;28;20060;-77
2022/01/09 09:00:24;;;;;;;53.08;24.48;;;-1.70;99.90;;;;;;5013437;28;20356;-76
2022/01/09 09:02:50;;;;;;;44.08;22.30;;;-1.60;99.90;;;;;;5015515;28;20040;-77
2022/01/09 09:05:16;;;;;;;44.15;20.65;;;-1.40;99.90;;;;;;5025878;28;20017;-77
2022/01/09 09:07:41;;;;;;;49.95;22.08;;;-1.30;99.90;;;;;;5070063;28;20520;-77
2022/01/09 09:10:09;;;;;;;47.47;22.75;;;-1.10;99.90;;;;;;5036070;28;20461;-78
2022/01/09 09:12:34;;;;;;;44.00;24.50;;;-1.00;99.90;;;;;;5033368;28;20526;-77
2022/01/09 09:15:03;;;;;;;41.78;20.08;;;-1.00;99.90;;;;;;5033817;28;20116;-78
2022/01/09 09:17:29;;;;;;;47.95;21.35;;;-0.90;99.90;;;;;;5014571;28;20432;-77
2022/01/09 09:19:56;;;;;;;49.78;21.40;;;-0.80;99.90;;;;;;5032455;28;20113;-78
2022/01/09 09:22:22;;;;;;;41.55;20.42;;;-0.70;98.90;;;;;;5032567;28;20406;-78
2022/01/09 09:24:48;;;;;;;42.58;21.80;;;-0.60;98.10;;;;;;5031153;28;20025;-77
2022/01/09 09:27:14;;;;;;;36.20;19.17;;;-0.60;97.30;;;;;;5014529;28;20021;-76
2022/01/09 09:29:39;;;;;;;38.42;18.40;;;-0.50;96.00;;;;;;5047556;28;20018;-78
2022/01/09 09:32:05;;;;;;;38.47;19.17;;;-0.40;95.70;;;;;;5014603;28;20029;-76
2022/01/09 09:34:31;;;;;;;37.70;18.77;;;-0.40;95.10;;;;;;5033778;28;20524;-77
2022/01/09 09:36:57;;;;;;;41.55;20.60;;;-0.30;94.70;;;;;;5016044;28;20133;-77
2022/01/09 09:39:22;;;;;;;36.13;19.17;;;-0.30;93.80;;;;;;5014592;28;20032;-78
2022/01/09 09:41:50;;;;;;;40.78;20.23;;;-0.20;94.00;;;;;;5015706;28;20364;-78
2022/01/09 09:44:16;;;;;;;46.65;20.05;;;-0.10;93.40;;;;;;5033162;28;20082;-77
2022/01/09 09:46:48;;;;;;;37.25;19.15;;;-0.10;92.40;;;;;;5033392;28;20124;-78
2022/01/09 09:49:14;;;;;;;48.13;23.58;;;-0.10;90.90;;;;;;5033231;28;20026;-78
2022/01/09 09:51:40;;;;;;;36.42;17.70;;;0.00;90.80;;;;;;5015455;28;20083;-79
2022/01/09 09:54:05;;;;;;;37.63;16.63;;;0.10;90.50;;;;;;5032517;28;20414;-78
2022/01/09 09:56:31;;;;;;;32.83;17.30;;;0.20;88.90;;;;;;5033187;28;20057;-79
2022/01/09 09:59:01;;;;;;;43.38;22.67;;;0.30;88.50;;;;;;5017710;28;20032;-78
2022/01/09 10:01:32;;;;;;;37.25;17.35;;;0.30;88.00;;;;;;5015688;28;20018;-78
2022/01/09 10:04:03;;;;;;;36.58;18.10;;;0.40;87.50;;;;;;5016922;28;20044;-76
2022/01/09 10:06:39;;;;;;;33.00;15.32;;;0.40;84.80;;;;;;5035264;28;20069;-76
2022/01/09 10:09:09;;;;;;;35.80;16.80;;;0.50;84.40;;;;;;5031430;28;20148;-76
2022/01/09 10:11:52;;;;;;;38.80;19.73;;;0.60;84.10;;;;;;5020089;28;20044;-76
2022/01/09 10:14:22;;;;;;;29.67;15.75;;;0.70;84.20;;;;;;5017956;28;20029;-77
2022/01/09 10:17:16;;;;;;;32.22;14.95;;;0.80;82.60;;;;;;5037085;28;20032;-77
2022/01/09 10:19:42;;;;;;;51.38;21.15;;;0.80;81.70;;;;;;5052896;28;20028;-78
2022/01/09 10:22:25;;;;;;;51.92;22.58;;;0.90;81.40;;;;;;5021493;28;20052;-77
2022/01/09 10:24:51;;;;;;;21.33;12.05;;;0.90;80.90;;;;;;5017749;28;20721;-77
2022/01/09 10:27:35;;;;;;;30.48;14.27;;;1.00;80.60;;;;;;5034494;28;20056;-77
2022/01/09 10:30:04;;;;;;;28.15;14.50;;;1.10;79.80;;;;;;5034757;28;20037;-77
2022/01/09 10:32:30;;;;;;;23.80;12.40;;;1.10;78.40;;;;;;5034437;28;20049;-77
2022/01/09 10:35:15;;;;;;;20.38;10.95;;;1.20;76.90;;;;;;5017371;28;20021;-77
2022/01/09 10:37:43;;;;;;;27.23;15.65;;;1.20;75.70;;;;;;5034669;28;20501;-78
2022/01/09 10:40:16;;;;;;;24.15;14.63;;;1.30;75.10;;;;;;5051302;28;20021;-77
2022/01/09 10:42:42;;;;;;;17.77;9.80;;;1.30;76.10;;;;;;5015800;28;20373;-78
2022/01/09 10:45:19;;;;;;;20.00;11.05;;;1.30;74.40;;;;;;5019243;28;20183;-78
2022/01/09 10:47:45;;;;;;;33.67;15.10;;;1.40;74.20;;;;;;5041621;28;20071;-75
2022/01/09 10:50:23;;;;;;;20.95;11.38;;;1.40;73.20;;;;;;5036110;28;20021;-76
2022/01/09 10:52:48;;;;;;;77.82;29.00;;;1.40;72.10;;;;;;5040510;28;20045;-76
2022/01/09 10:55:14;;;;;;;138.13;50.10;;;1.50;71.70;;;;;;5039187;28;20031;-75
2022/01/09 10:57:40;;;;;;;80.28;32.28;;;1.50;72.50;;;;;;5040099;28;20032;-75
2022/01/09 11:00:14;;;;;;;43.92;16.77;;;1.60;72.20;;;;;;5034482;28;20036;-76
2022/01/09 11:02:40;;;;;;;40.03;15.63;;;1.60;71.90;;;;;;5034532;28;20044;-76
2022/01/09 11:05:06;;;;;;;39.42;16.85;;;1.70;70.20;;;;;;5044657;28;20485;-75
2022/01/09 11:07:33;;;;;;;28.55;14.48;;;1.70;69.70;;;;;;5038544;28;20072;-75
2022/01/09 11:10:00;;;;;;;29.70;13.45;;;1.70;68.30;;;;;;5039660;28;20075;-76
2022/01/09 11:12:33;;;;;;;33.80;13.23;;;1.80;67.70;;;;;;5022597;28;20033;-76
2022/01/09 11:15:01;;;;;;;58.60;22.73;;;1.80;68.30;;;;;;5026603;28;20025;-76
2022/01/09 11:17:27;;;;;;;46.13;21.45;;;1.80;67.90;;;;;;5011841;28;20068;-76
2022/01/09 11:19:53;;;;;;;24.52;13.23;;;1.90;68.60;;;;;;5031605;28;20033;-76
2022/01/09 11:22:20;;;;;;;20.73;13.07;;;1.90;68.70;;;;;;5039370;28;20391;-75
2022/01/09 11:24:52;;;;;;;17.92;9.55;;;1.90;68.60;;;;;;5015576;28;20063;-75
2022/01/09 11:27:25;;;;;;;17.73;9.10;;;1.90;67.60;;;;;;5030688;28;20045;-76
2022/01/09 11:30:07;;;;;;;13.73;8.30;;;1.90;67.90;;;;;;5018414;28;20033;-76
2022/01/09 11:32:33;;;;;;;16.25;9.30;;;2.00;67.70;;;;;;5018023;28;20053;-76
2022/01/09 11:35:17;;;;;;;12.35;7.68;;;2.00;67.70;;;;;;5036395;28;20036;-75
2022/01/09 11:38:10;;;;;;;13.02;7.95;;;2.00;68.90;;;;;;5026296;28;20205;-76
2022/01/09 11:40:38;;;;;;;18.67;9.93;;;2.00;68.70;;;;;;5026999;28;20505;-76
2022/01/09 11:43:15;;;;;;;20.67;12.95;;;2.00;68.00;;;;;;5025501;28;20099;-75
2022/01/09 11:45:48;;;;;;;18.00;9.85;;;2.00;67.60;;;;;;5012024;28;20534;-76
2022/01/09 11:48:16;;;;;;;42.25;19.90;;;2.00;68.20;;;;;;5048675;28;20040;-75
2022/01/09 11:51:10;;;;;;;18.48;9.13;;;2.00;67.20;;;;;;5016673;28;20022;-76
2022/01/09 11:53:54;;;;;;;16.67;8.07;;;2.00;67.90;;;;;;5043057;28;20029;-75
2022/01/09 11:56:43;;;;;;;42.22;19.83;;;2.00;67.10;;;;;;5009396;28;20398;-76
2022/01/09 11:59:20;;;;;;;63.60;28.73;;;2.00;66.10;;;;;;5023036;28;20530;-78
2022/01/09 12:01:48;;;;;;;24.17;13.98;;;2.00;66.40;;;;;;5026378;28;20432;-79
2022/01/09 12:04:36;;;;;;;24.67;14.65;;;2.00;66.20;;;;;;5029772;28;20029;-77
2022/01/09 12:07:13;;;;;;;35.47;17.63;;;2.00;66.00;;;;;;5016094;28;20033;-76
2022/01/09 12:09:46;;;;;;;37.47;19.02;;;2.00;66.00;;;;;;5026642;28;20018;-76
2022/01/09 12:12:20;;;;;;;41.85;21.55;;;2.00;65.60;;;;;;5010594;28;20100;-77
2022/01/09 12:14:51;;;;;;;31.92;15.38;;;2.00;64.70;;;;;;5011387;28;20025;-78
2022/01/09 12:17:26;;;;;;;18.27;10.90;;;2.00;64.00;;;;;;5026832;28;20025;-77
2022/01/09 12:19:54;;;;;;;15.57;9.60;;;2.00;65.20;;;;;;5041571;28;20021;-76
2022/01/09 12:22:49;;;;;;;22.15;11.55;;;2.00;64.40;;;;;;5029895;28;20026;-76
2022/01/09 12:25:26;;;;;;;17.00;9.52;;;2.00;65.30;;;;;;5026963;28;20024;-76
2022/01/09 12:28:19;;;;;;;34.25;15.55;;;2.00;63.20;;;;;;5010812;28;20025;-76
2022/01/09 12:30:49;;;;;;;84.43;36.78;;;1.90;63.40;;;;;;5012030;28;20049;-76
2022/01/09 12:33:31;;;;;;;25.50;13.93;;;1.90;63.30;;;;;;5030103;28;20084;-76
2022/01/09 12:36:08;;;;;;;27.67;14.25;;;1.90;64.70;;;;;;5044030;28;20033;-76